sensor_id;sensor_type;location;lat;lon;timestamp;temperature;humidity
45785;DHT22;31489;51.404;5.474;2022-08-02T00:02:18;21.80;50.60
45785;DHT22;31489;51.404;5.474;2022-08-02T00:04:45;21.80;50.60
45785;DHT22;31489;51.404;5.474;2022-08-02T00:07:10;21.80;50.70
45785;DHT22;31489;51.404;5.474;2022-08-02T00:09:36;21.70;50.70
45785;DHT22;31489;51.404;5.474;2022-08-02T00:12:02;21.70;50.70
45785;DHT22;31489;51.404;5.474;2022-08-02T00:14:28;21.70;50.60
45785;DHT22;31489;51.404;5.474;2022-08-02T00:16:53;21.70;50.60
45785;DHT22;31489;51.404;5.474;2022-08-02T00:19:19;21.70;50.50
45785;DHT22;31489;51.404;5.474;2022-08-02T00:21:44;21.70;50.60
45785;DHT22;31489;51.404;5.474;2022-08-02T00:24:10;21.70;50.70
45785;DHT22;31489;51.404;5.474;2022-08-02T00:26:36;21.70;50.60
45785;DHT22;31489;51.404;5.474;2022-08-02T00:29:02;21.60;50.60
45785;DHT22;31489;51.404;5.474;2022-08-02T00:31:28;21.60;50.50
45785;DHT22;31489;51.404;5.474;2022-08-02T00:33:53;21.60;50.20
45785;DHT22;31489;51.404;5.474;2022-08-02T00:36:19;21.60;50.30
45785;DHT22;31489;51.404;5.474;2022-08-02T00:38:44;21.60;50.40
45785;DHT22;31489;51.404;5.474;2022-08-02T00:41:14;21.60;50.60
45785;DHT22;31489;51.404;5.474;2022-08-02T00:43:41;21.50;50.20
45785;DHT22;31489;51.404;5.474;2022-08-02T00:46:06;21.50;50.30
45785;DHT22;31489;51.404;5.474;2022-08-02T00:48:32;21.50;50.20
45785;DHT22;31489;51.404;5.474;2022-08-02T00:50:57;21.50;50.20
45785;DHT22;31489;51.404;5.474;2022-08-02T00:53:23;21.50;50.20
45785;DHT22;31489;51.404;5.474;2022-08-02T00:55:49;21.50;50.30
45785;DHT22;31489;51.404;5.474;2022-08-02T00:58:14;21.50;50.20
45785;DHT22;31489;51.404;5.474;2022-08-02T01:00:40;21.50;50.30
45785;DHT22;31489;51.404;5.474;2022-08-02T01:03:05;21.40;50.40
45785;DHT22;31489;51.404;5.474;2022-08-02T01:05:31;21.40;50.30
45785;DHT22;31489;51.404;5.474;2022-08-02T01:07:57;21.40;50.50
45785;DHT22;31489;51.404;5.474;2022-08-02T01:10:22;21.40;50.60
45785;DHT22;31489;51.404;5.474;2022-08-02T01:12:48;21.40;50.30
45785;DHT22;31489;51.404;5.474;2022-08-02T01:15:16;21.40;50.30
45785;DHT22;31489;51.404;5.474;2022-08-02T01:17:49;21.40;50.20
45785;DHT22;31489;51.404;5.474;2022-08-02T01:20:23;21.40;50.20
45785;DHT22;31489;51.404;5.474;2022-08-02T01:31:25;21.30;50.60
45785;DHT22;31489;51.404;5.474;2022-08-02T01:34:05;21.30;50.70
45785;DHT22;31489;51.404;5.474;2022-08-02T01:36:40;21.30;50.90
45785;DHT22;31489;51.404;5.474;2022-08-02T01:39:10;21.30;51.10
45785;DHT22;31489;51.404;5.474;2022-08-02T01:41:39;21.30;51.20
45785;DHT22;31489;51.404;5.474;2022-08-02T01:44:06;21.30;51.10
45785;DHT22;31489;51.404;5.474;2022-08-02T01:46:32;21.20;51.20
45785;DHT22;31489;51.404;5.474;2022-08-02T01:49:02;21.20;51.10
45785;DHT22;31489;51.404;5.474;2022-08-02T01:51:28;21.20;51.20
45785;DHT22;31489;51.404;5.474;2022-08-02T01:54:16;21.10;51.20
45785;DHT22;31489;51.404;5.474;2022-08-02T01:56:43;21.10;51.30
45785;DHT22;31489;51.404;5.474;2022-08-02T01:59:13;21.10;51.40
45785;DHT22;31489;51.404;5.474;2022-08-02T02:01:41;21.00;51.60
45785;DHT22;31489;51.404;5.474;2022-08-02T02:04:09;21.00;51.70
45785;DHT22;31489;51.404;5.474;2022-08-02T02:06:36;21.00;51.60
45785;DHT22;31489;51.404;5.474;2022-08-02T02:09:03;21.00;51.80
45785;DHT22;31489;51.404;5.474;2022-08-02T02:11:30;20.90;51.90
45785;DHT22;31489;51.404;5.474;2022-08-02T02:13:57;20.90;52.00
45785;DHT22;31489;51.404;5.474;2022-08-02T02:16:25;20.90;52.10
45785;DHT22;31489;51.404;5.474;2022-08-02T02:18:52;20.90;52.20
45785;DHT22;31489;51.404;5.474;2022-08-02T02:21:18;20.80;52.30
45785;DHT22;31489;51.404;5.474;2022-08-02T02:23:44;20.80;52.30
45785;DHT22;31489;51.404;5.474;2022-08-02T02:26:12;20.80;52.40
45785;DHT22;31489;51.404;5.474;2022-08-02T02:28:40;20.80;52.40
45785;DHT22;31489;51.404;5.474;2022-08-02T02:31:10;20.70;52.40
45785;DHT22;31489;51.404;5.474;2022-08-02T02:33:40;20.70;52.60
45785;DHT22;31489;51.404;5.474;2022-08-02T02:36:09;20.70;52.70
45785;DHT22;31489;51.404;5.474;2022-08-02T02:38:37;20.70;52.70
45785;DHT22;31489;51.404;5.474;2022-08-02T02:41:04;20.70;52.70
45785;DHT22;31489;51.404;5.474;2022-08-02T02:43:32;20.70;52.80
45785;DHT22;31489;51.404;5.474;2022-08-02T02:46:00;20.60;52.80
45785;DHT22;31489;51.404;5.474;2022-08-02T02:48:28;20.60;52.90
45785;DHT22;31489;51.404;5.474;2022-08-02T02:50:54;20.60;52.90
45785;DHT22;31489;51.404;5.474;2022-08-02T02:53:21;20.60;53.00
45785;DHT22;31489;51.404;5.474;2022-08-02T02:55:47;20.50;53.00
45785;DHT22;31489;51.404;5.474;2022-08-02T02:58:13;20.50;53.10
45785;DHT22;31489;51.404;5.474;2022-08-02T03:00:39;20.50;53.20
45785;DHT22;31489;51.404;5.474;2022-08-02T03:03:24;20.50;53.30
45785;DHT22;31489;51.404;5.474;2022-08-02T03:05:50;20.40;53.90
45785;DHT22;31489;51.404;5.474;2022-08-02T03:08:15;20.40;53.50
45785;DHT22;31489;51.404;5.474;2022-08-02T03:10:42;20.40;53.50
45785;DHT22;31489;51.404;5.474;2022-08-02T03:13:09;20.30;53.70
45785;DHT22;31489;51.404;5.474;2022-08-02T03:15:35;20.30;53.80
45785;DHT22;31489;51.404;5.474;2022-08-02T03:18:01;20.30;53.90
45785;DHT22;31489;51.404;5.474;2022-08-02T03:20:27;20.20;54.00
45785;DHT22;31489;51.404;5.474;2022-08-02T03:22:52;20.20;54.10
45785;DHT22;31489;51.404;5.474;2022-08-02T03:25:18;20.20;54.20
45785;DHT22;31489;51.404;5.474;2022-08-02T03:27:44;20.20;54.30
45785;DHT22;31489;51.404;5.474;2022-08-02T03:30:11;20.10;54.30
45785;DHT22;31489;51.404;5.474;2022-08-02T03:32:39;20.10;54.50
45785;DHT22;31489;51.404;5.474;2022-08-02T03:35:06;20.10;54.60
45785;DHT22;31489;51.404;5.474;2022-08-02T03:37:33;20.10;54.60
45785;DHT22;31489;51.404;5.474;2022-08-02T03:40:00;20.00;54.60
45785;DHT22;31489;51.404;5.474;2022-08-02T03:42:26;20.00;54.80
45785;DHT22;31489;51.404;5.474;2022-08-02T03:44:54;20.00;55.00
45785;DHT22;31489;51.404;5.474;2022-08-02T03:47:20;20.00;55.00
45785;DHT22;31489;51.404;5.474;2022-08-02T03:49:46;20.00;55.10
45785;DHT22;31489;51.404;5.474;2022-08-02T03:52:12;20.00;55.00
45785;DHT22;31489;51.404;5.474;2022-08-02T03:54:38;20.00;55.10
45785;DHT22;31489;51.404;5.474;2022-08-02T03:57:05;20.00;55.20
45785;DHT22;31489;51.404;5.474;2022-08-02T03:59:44;20.00;55.30
45785;DHT22;31489;51.404;5.474;2022-08-02T04:02:11;20.00;55.70
45785;DHT22;31489;51.404;5.474;2022-08-02T04:04:38;20.00;55.60
45785;DHT22;31489;51.404;5.474;2022-08-02T04:07:04;20.00;55.60
45785;DHT22;31489;51.404;5.474;2022-08-02T04:09:30;19.90;55.70
45785;DHT22;31489;51.404;5.474;2022-08-02T04:11:56;19.90;55.60
45785;DHT22;31489;51.404;5.474;2022-08-02T04:14:22;19.90;55.70
45785;DHT22;31489;51.404;5.474;2022-08-02T04:16:58;19.90;55.90
45785;DHT22;31489;51.404;5.474;2022-08-02T04:19:31;19.90;56.00
45785;DHT22;31489;51.404;5.474;2022-08-02T04:22:01;19.90;55.90
45785;DHT22;31489;51.404;5.474;2022-08-02T04:24:35;19.90;56.00
45785;DHT22;31489;51.404;5.474;2022-08-02T04:27:03;19.90;56.30
45785;DHT22;31489;51.404;5.474;2022-08-02T04:29:29;19.90;56.30
45785;DHT22;31489;51.404;5.474;2022-08-02T04:31:56;19.90;56.30
45785;DHT22;31489;51.404;5.474;2022-08-02T04:34:22;19.90;56.50
45785;DHT22;31489;51.404;5.474;2022-08-02T04:36:48;19.90;56.50
45785;DHT22;31489;51.404;5.474;2022-08-02T04:39:14;19.90;56.60
45785;DHT22;31489;51.404;5.474;2022-08-02T04:41:44;19.90;56.70
45785;DHT22;31489;51.404;5.474;2022-08-02T04:44:11;19.90;56.90
45785;DHT22;31489;51.404;5.474;2022-08-02T04:46:38;19.90;56.90
45785;DHT22;31489;51.404;5.474;2022-08-02T04:49:04;19.90;57.00
45785;DHT22;31489;51.404;5.474;2022-08-02T04:51:30;19.90;57.10
45785;DHT22;31489;51.404;5.474;2022-08-02T04:53:58;19.90;57.10
45785;DHT22;31489;51.404;5.474;2022-08-02T04:56:23;19.90;57.10
45785;DHT22;31489;51.404;5.474;2022-08-02T04:58:49;19.90;57.20
45785;DHT22;31489;51.404;5.474;2022-08-02T05:01:14;19.90;57.30
45785;DHT22;31489;51.404;5.474;2022-08-02T05:03:40;19.90;57.50
45785;DHT22;31489;51.404;5.474;2022-08-02T05:06:05;19.90;57.60
45785;DHT22;31489;51.404;5.474;2022-08-02T05:08:31;20.00;57.70
45785;DHT22;31489;51.404;5.474;2022-08-02T05:10:57;19.90;57.80
45785;DHT22;31489;51.404;5.474;2022-08-02T05:13:22;20.00;57.90
45785;DHT22;31489;51.404;5.474;2022-08-02T05:15:48;20.00;58.00
45785;DHT22;31489;51.404;5.474;2022-08-02T05:18:14;20.00;58.10
45785;DHT22;31489;51.404;5.474;2022-08-02T05:20:40;20.00;58.20
45785;DHT22;31489;51.404;5.474;2022-08-02T05:23:06;20.00;58.30
45785;DHT22;31489;51.404;5.474;2022-08-02T05:25:31;20.00;58.50
45785;DHT22;31489;51.404;5.474;2022-08-02T05:27:57;20.10;58.50
45785;DHT22;31489;51.404;5.474;2022-08-02T05:30:23;20.10;58.60
45785;DHT22;31489;51.404;5.474;2022-08-02T05:32:49;20.10;58.80
45785;DHT22;31489;51.404;5.474;2022-08-02T05:35:18;20.20;59.10
45785;DHT22;31489;51.404;5.474;2022-08-02T05:37:44;20.20;59.10
45785;DHT22;31489;51.404;5.474;2022-08-02T05:40:09;20.20;59.10
45785;DHT22;31489;51.404;5.474;2022-08-02T05:42:35;20.30;59.30
45785;DHT22;31489;51.404;5.474;2022-08-02T05:45:02;20.30;59.40
45785;DHT22;31489;51.404;5.474;2022-08-02T05:47:27;20.30;59.80
45785;DHT22;31489;51.404;5.474;2022-08-02T05:49:53;20.40;59.90
45785;DHT22;31489;51.404;5.474;2022-08-02T05:52:20;20.40;60.10
45785;DHT22;31489;51.404;5.474;2022-08-02T05:55:06;20.50;60.30
45785;DHT22;31489;51.404;5.474;2022-08-02T05:57:50;20.50;60.80
45785;DHT22;31489;51.404;5.474;2022-08-02T06:00:17;20.60;61.00
45785;DHT22;31489;51.404;5.474;2022-08-02T06:05:18;20.70;61.40
45785;DHT22;31489;51.404;5.474;2022-08-02T06:07:46;20.80;61.30
45785;DHT22;31489;51.404;5.474;2022-08-02T06:10:13;20.90;61.20
45785;DHT22;31489;51.404;5.474;2022-08-02T06:12:53;20.90;61.30
45785;DHT22;31489;51.404;5.474;2022-08-02T06:15:20;21.00;62.50
45785;DHT22;31489;51.404;5.474;2022-08-02T06:17:46;21.10;61.50
45785;DHT22;31489;51.404;5.474;2022-08-02T06:20:14;21.10;61.50
45785;DHT22;31489;51.404;5.474;2022-08-02T06:22:41;21.20;61.60
45785;DHT22;31489;51.404;5.474;2022-08-02T06:25:11;21.30;61.50
45785;DHT22;31489;51.404;5.474;2022-08-02T06:27:41;21.40;61.60
45785;DHT22;31489;51.404;5.474;2022-08-02T06:30:10;21.40;61.50
45785;DHT22;31489;51.404;5.474;2022-08-02T06:32:35;21.50;61.70
45785;DHT22;31489;51.404;5.474;2022-08-02T06:35:03;21.60;61.40
45785;DHT22;31489;51.404;5.474;2022-08-02T06:37:40;21.60;61.50
45785;DHT22;31489;51.404;5.474;2022-08-02T06:45:36;21.80;62.10
45785;DHT22;31489;51.404;5.474;2022-08-02T06:48:02;21.80;61.50
45785;DHT22;31489;51.404;5.474;2022-08-02T06:50:29;21.90;61.60
45785;DHT22;31489;51.404;5.474;2022-08-02T06:52:55;21.90;61.50
45785;DHT22;31489;51.404;5.474;2022-08-02T06:55:21;21.90;61.70
45785;DHT22;31489;51.404;5.474;2022-08-02T06:57:47;21.90;61.80
45785;DHT22;31489;51.404;5.474;2022-08-02T07:00:13;22.00;61.80
45785;DHT22;31489;51.404;5.474;2022-08-02T07:02:39;22.00;62.60
45785;DHT22;31489;51.404;5.474;2022-08-02T07:05:05;22.10;62.40
45785;DHT22;31489;51.404;5.474;2022-08-02T07:07:31;22.20;62.50
45785;DHT22;31489;51.404;5.474;2022-08-02T07:09:59;22.20;62.60
45785;DHT22;31489;51.404;5.474;2022-08-02T07:12:25;22.20;62.80
45785;DHT22;31489;51.404;5.474;2022-08-02T07:14:51;22.30;62.80
45785;DHT22;31489;51.404;5.474;2022-08-02T07:17:17;22.30;62.90
45785;DHT22;31489;51.404;5.474;2022-08-02T07:19:42;22.40;63.00
45785;DHT22;31489;51.404;5.474;2022-08-02T07:22:08;22.40;63.00
45785;DHT22;31489;51.404;5.474;2022-08-02T07:24:34;22.50;63.10
45785;DHT22;31489;51.404;5.474;2022-08-02T07:27:00;22.50;63.20
45785;DHT22;31489;51.404;5.474;2022-08-02T07:29:25;22.60;63.10
45785;DHT22;31489;51.404;5.474;2022-08-02T07:31:51;22.60;63.20
45785;DHT22;31489;51.404;5.474;2022-08-02T07:34:17;22.70;62.90
45785;DHT22;31489;51.404;5.474;2022-08-02T07:36:42;22.70;62.80
45785;DHT22;31489;51.404;5.474;2022-08-02T07:39:08;22.80;62.90
45785;DHT22;31489;51.404;5.474;2022-08-02T07:41:34;22.90;63.00
45785;DHT22;31489;51.404;5.474;2022-08-02T07:44:00;22.90;62.90
45785;DHT22;31489;51.404;5.474;2022-08-02T07:46:26;23.00;63.00
45785;DHT22;31489;51.404;5.474;2022-08-02T07:48:52;23.00;62.80
45785;DHT22;31489;51.404;5.474;2022-08-02T07:51:20;23.10;62.70
45785;DHT22;31489;51.404;5.474;2022-08-02T07:53:46;23.20;62.80
45785;DHT22;31489;51.404;5.474;2022-08-02T07:56:11;23.20;62.70
45785;DHT22;31489;51.404;5.474;2022-08-02T07:58:37;23.20;62.40
45785;DHT22;31489;51.404;5.474;2022-08-02T08:01:03;23.30;62.70
45785;DHT22;31489;51.404;5.474;2022-08-02T08:03:28;23.40;62.40
45785;DHT22;31489;51.404;5.474;2022-08-02T08:05:54;23.40;62.30
45785;DHT22;31489;51.404;5.474;2022-08-02T08:08:20;23.50;62.30
45785;DHT22;31489;51.404;5.474;2022-08-02T08:10:46;23.60;62.10
45785;DHT22;31489;51.404;5.474;2022-08-02T08:13:12;23.70;62.00
45785;DHT22;31489;51.404;5.474;2022-08-02T08:15:37;23.70;62.10
45785;DHT22;31489;51.404;5.474;2022-08-02T08:18:04;23.80;61.60
45785;DHT22;31489;51.404;5.474;2022-08-02T08:20:29;23.90;61.50
45785;DHT22;31489;51.404;5.474;2022-08-02T08:22:55;24.00;60.90
45785;DHT22;31489;51.404;5.474;2022-08-02T08:25:21;24.00;60.80
45785;DHT22;31489;51.404;5.474;2022-08-02T08:27:50;24.10;60.00
45785;DHT22;31489;51.404;5.474;2022-08-02T08:30:17;24.10;59.60
45785;DHT22;31489;51.404;5.474;2022-08-02T08:32:44;24.20;59.50
45785;DHT22;31489;51.404;5.474;2022-08-02T08:35:10;24.20;59.60
45785;DHT22;31489;51.404;5.474;2022-08-02T08:37:36;24.30;59.60
45785;DHT22;31489;51.404;5.474;2022-08-02T08:40:07;24.40;59.60
45785;DHT22;31489;51.404;5.474;2022-08-02T08:42:38;24.40;59.70
45785;DHT22;31489;51.404;5.474;2022-08-02T08:45:04;24.50;59.30
45785;DHT22;31489;51.404;5.474;2022-08-02T08:47:40;24.60;59.30
45785;DHT22;31489;51.404;5.474;2022-08-02T08:50:13;24.70;58.90
45785;DHT22;31489;51.404;5.474;2022-08-02T08:52:46;24.70;58.70
45785;DHT22;31489;51.404;5.474;2022-08-02T08:55:13;24.80;58.50
45785;DHT22;31489;51.404;5.474;2022-08-02T08:57:41;24.90;58.60
45785;DHT22;31489;51.404;5.474;2022-08-02T09:00:08;25.00;58.30
45785;DHT22;31489;51.404;5.474;2022-08-02T09:02:35;25.00;58.00
45785;DHT22;31489;51.404;5.474;2022-08-02T09:05:01;25.10;57.80
45785;DHT22;31489;51.404;5.474;2022-08-02T09:07:27;25.20;58.00
45785;DHT22;31489;51.404;5.474;2022-08-02T09:09:53;25.20;57.70
45785;DHT22;31489;51.404;5.474;2022-08-02T09:12:19;25.30;57.90
45785;DHT22;31489;51.404;5.474;2022-08-02T09:14:49;25.40;57.30
45785;DHT22;31489;51.404;5.474;2022-08-02T09:17:15;25.40;57.30
45785;DHT22;31489;51.404;5.474;2022-08-02T09:19:41;25.50;57.20
45785;DHT22;31489;51.404;5.474;2022-08-02T09:22:09;25.50;57.20
45785;DHT22;31489;51.404;5.474;2022-08-02T09:24:49;25.60;57.20
45785;DHT22;31489;51.404;5.474;2022-08-02T09:27:21;25.60;56.80
45785;DHT22;31489;51.404;5.474;2022-08-02T09:29:53;25.70;57.20
45785;DHT22;31489;51.404;5.474;2022-08-02T09:32:19;25.80;57.10
45785;DHT22;31489;51.404;5.474;2022-08-02T09:34:47;25.90;57.20
45785;DHT22;31489;51.404;5.474;2022-08-02T09:37:28;25.90;57.00
45785;DHT22;31489;51.404;5.474;2022-08-02T09:39:56;26.00;57.00
45785;DHT22;31489;51.404;5.474;2022-08-02T09:42:24;26.10;56.60
45785;DHT22;31489;51.404;5.474;2022-08-02T09:45:00;26.10;56.30
45785;DHT22;31489;51.404;5.474;2022-08-02T09:47:28;26.30;56.20
45785;DHT22;31489;51.404;5.474;2022-08-02T09:49:55;26.40;56.00
45785;DHT22;31489;51.404;5.474;2022-08-02T09:52:28;26.50;55.10
45785;DHT22;31489;51.404;5.474;2022-08-02T09:55:04;26.60;54.30
45785;DHT22;31489;51.404;5.474;2022-08-02T09:57:30;26.60;53.90
45785;DHT22;31489;51.404;5.474;2022-08-02T09:59:58;26.70;55.00
45785;DHT22;31489;51.404;5.474;2022-08-02T10:02:24;26.80;54.50
45785;DHT22;31489;51.404;5.474;2022-08-02T10:04:50;26.80;54.50
45785;DHT22;31489;51.404;5.474;2022-08-02T10:07:16;26.90;54.10
45785;DHT22;31489;51.404;5.474;2022-08-02T10:09:44;26.90;53.70
45785;DHT22;31489;51.404;5.474;2022-08-02T10:12:12;27.00;54.40
45785;DHT22;31489;51.404;5.474;2022-08-02T10:14:38;27.10;53.70
45785;DHT22;31489;51.404;5.474;2022-08-02T10:17:05;27.20;53.30
45785;DHT22;31489;51.404;5.474;2022-08-02T10:19:31;27.20;52.70
45785;DHT22;31489;51.404;5.474;2022-08-02T10:22:09;27.30;52.60
45785;DHT22;31489;51.404;5.474;2022-08-02T10:24:36;27.40;51.60
45785;DHT22;31489;51.404;5.474;2022-08-02T10:27:03;27.40;51.50
45785;DHT22;31489;51.404;5.474;2022-08-02T10:29:33;27.50;51.50
45785;DHT22;31489;51.404;5.474;2022-08-02T10:32:07;27.50;51.00
45785;DHT22;31489;51.404;5.474;2022-08-02T10:34:48;27.60;51.00
45785;DHT22;31489;51.404;5.474;2022-08-02T10:37:16;27.70;50.20
45785;DHT22;31489;51.404;5.474;2022-08-02T10:39:44;27.80;50.60
45785;DHT22;31489;51.404;5.474;2022-08-02T10:42:11;27.80;49.50
45785;DHT22;31489;51.404;5.474;2022-08-02T10:44:37;27.90;49.60
45785;DHT22;31489;51.404;5.474;2022-08-02T10:47:23;28.00;49.40
45785;DHT22;31489;51.404;5.474;2022-08-02T10:49:55;28.10;49.00
45785;DHT22;31489;51.404;5.474;2022-08-02T10:52:25;28.20;49.00
45785;DHT22;31489;51.404;5.474;2022-08-02T10:55:11;28.40;49.30
45785;DHT22;31489;51.404;5.474;2022-08-02T10:57:39;28.50;48.70
45785;DHT22;31489;51.404;5.474;2022-08-02T11:00:12;28.60;48.20
45785;DHT22;31489;51.404;5.474;2022-08-02T11:02:50;28.70;46.80
45785;DHT22;31489;51.404;5.474;2022-08-02T11:05:17;28.80;47.10
45785;DHT22;31489;51.404;5.474;2022-08-02T11:07:50;29.00;47.00
45785;DHT22;31489;51.404;5.474;2022-08-02T11:13:05;29.20;46.10
45785;DHT22;31489;51.404;5.474;2022-08-02T11:21:27;29.80;45.30
45785;DHT22;31489;51.404;5.474;2022-08-02T11:23:54;30.10;45.10
45785;DHT22;31489;51.404;5.474;2022-08-02T11:29:02;30.50;44.50
45785;DHT22;31489;51.404;5.474;2022-08-02T11:31:37;30.70;44.40
45785;DHT22;31489;51.404;5.474;2022-08-02T11:34:04;30.90;43.00
45785;DHT22;31489;51.404;5.474;2022-08-02T11:36:30;30.90;42.40
45785;DHT22;31489;51.404;5.474;2022-08-02T11:39:13;31.00;42.30
45785;DHT22;31489;51.404;5.474;2022-08-02T11:41:39;31.10;41.90
45785;DHT22;31489;51.404;5.474;2022-08-02T11:44:04;31.10;42.90
45785;DHT22;31489;51.404;5.474;2022-08-02T11:46:30;31.20;42.20
45785;DHT22;31489;51.404;5.474;2022-08-02T11:48:56;31.20;42.40
45785;DHT22;31489;51.404;5.474;2022-08-02T11:51:22;31.20;42.10
45785;DHT22;31489;51.404;5.474;2022-08-02T11:53:52;31.20;41.80
45785;DHT22;31489;51.404;5.474;2022-08-02T11:56:29;31.20;41.90
45785;DHT22;31489;51.404;5.474;2022-08-02T11:59:07;31.30;41.80
45785;DHT22;31489;51.404;5.474;2022-08-02T12:01:35;31.30;41.90
45785;DHT22;31489;51.404;5.474;2022-08-02T12:04:02;31.40;42.30
45785;DHT22;31489;51.404;5.474;2022-08-02T12:06:29;31.40;42.20
45785;DHT22;31489;51.404;5.474;2022-08-02T12:09:09;31.50;41.60
45785;DHT22;31489;51.404;5.474;2022-08-02T12:11:36;31.50;41.40
45785;DHT22;31489;51.404;5.474;2022-08-02T12:14:02;31.50;41.80
45785;DHT22;31489;51.404;5.474;2022-08-02T12:16:37;31.60;41.30
45785;DHT22;31489;51.404;5.474;2022-08-02T12:19:43;31.70;40.10
45785;DHT22;31489;51.404;5.474;2022-08-02T12:24:35;31.90;40.60
45785;DHT22;31489;51.404;5.474;2022-08-02T12:27:01;32.00;39.70
45785;DHT22;31489;51.404;5.474;2022-08-02T12:29:38;32.10;39.80
45785;DHT22;31489;51.404;5.474;2022-08-02T12:32:05;32.10;39.40
45785;DHT22;31489;51.404;5.474;2022-08-02T12:34:32;32.20;39.70
45785;DHT22;31489;51.404;5.474;2022-08-02T12:37:04;32.20;39.20
45785;DHT22;31489;51.404;5.474;2022-08-02T12:39:41;32.30;38.90
45785;DHT22;31489;51.404;5.474;2022-08-02T12:42:09;32.30;38.70
45785;DHT22;31489;51.404;5.474;2022-08-02T12:44:38;32.30;38.90
45785;DHT22;31489;51.404;5.474;2022-08-02T12:47:13;32.40;39.10
45785;DHT22;31489;51.404;5.474;2022-08-02T12:49:39;32.50;39.50
45785;DHT22;31489;51.404;5.474;2022-08-02T12:52:25;32.50;38.70
45785;DHT22;31489;51.404;5.474;2022-08-02T12:54:51;32.60;38.70
45785;DHT22;31489;51.404;5.474;2022-08-02T12:57:18;32.70;39.00
45785;DHT22;31489;51.404;5.474;2022-08-02T12:59:49;32.70;38.30
45785;DHT22;31489;51.404;5.474;2022-08-02T13:02:15;32.80;37.80
45785;DHT22;31489;51.404;5.474;2022-08-02T13:04:42;32.90;38.20
45785;DHT22;31489;51.404;5.474;2022-08-02T13:07:08;33.00;37.90
45785;DHT22;31489;51.404;5.474;2022-08-02T13:09:40;33.00;38.20
45785;DHT22;31489;51.404;5.474;2022-08-02T13:12:06;33.10;37.80
45785;DHT22;31489;51.404;5.474;2022-08-02T13:14:33;33.10;38.00
45785;DHT22;31489;51.404;5.474;2022-08-02T13:16:59;33.10;38.10
45785;DHT22;31489;51.404;5.474;2022-08-02T13:19:25;33.20;37.90
45785;DHT22;31489;51.404;5.474;2022-08-02T13:21:51;33.30;37.60
45785;DHT22;31489;51.404;5.474;2022-08-02T13:24:17;33.30;37.10
45785;DHT22;31489;51.404;5.474;2022-08-02T13:26:43;33.40;37.00
45785;DHT22;31489;51.404;5.474;2022-08-02T13:29:10;33.40;36.70
45785;DHT22;31489;51.404;5.474;2022-08-02T13:31:36;33.40;36.60
45785;DHT22;31489;51.404;5.474;2022-08-02T13:34:04;33.40;36.40
45785;DHT22;31489;51.404;5.474;2022-08-02T13:36:31;33.40;36.40
45785;DHT22;31489;51.404;5.474;2022-08-02T13:38:57;33.40;35.80
45785;DHT22;31489;51.404;5.474;2022-08-02T13:41:23;33.50;35.70
45785;DHT22;31489;51.404;5.474;2022-08-02T13:43:49;33.60;36.40
45785;DHT22;31489;51.404;5.474;2022-08-02T13:46:14;33.60;36.10
45785;DHT22;31489;51.404;5.474;2022-08-02T13:48:40;33.60;36.00
45785;DHT22;31489;51.404;5.474;2022-08-02T13:51:06;33.60;35.50
45785;DHT22;31489;51.404;5.474;2022-08-02T13:53:40;33.70;35.50
45785;DHT22;31489;51.404;5.474;2022-08-02T13:56:06;33.70;35.10
45785;DHT22;31489;51.404;5.474;2022-08-02T13:58:32;33.80;35.60
45785;DHT22;31489;51.404;5.474;2022-08-02T14:00:58;33.80;35.20
45785;DHT22;31489;51.404;5.474;2022-08-02T14:03:24;33.80;35.60
45785;DHT22;31489;51.404;5.474;2022-08-02T14:05:50;33.80;35.50
45785;DHT22;31489;51.404;5.474;2022-08-02T14:08:20;33.80;35.10
45785;DHT22;31489;51.404;5.474;2022-08-02T14:10:48;33.80;35.10
45785;DHT22;31489;51.404;5.474;2022-08-02T14:13:15;33.70;35.10
45785;DHT22;31489;51.404;5.474;2022-08-02T14:15:41;33.70;35.20
45785;DHT22;31489;51.404;5.474;2022-08-02T14:18:07;33.80;35.50
45785;DHT22;31489;51.404;5.474;2022-08-02T14:20:33;33.70;35.10
45785;DHT22;31489;51.404;5.474;2022-08-02T14:22:59;33.70;35.80
45785;DHT22;31489;51.404;5.474;2022-08-02T14:25:24;33.70;35.80
45785;DHT22;31489;51.404;5.474;2022-08-02T14:27:51;33.70;35.40
45785;DHT22;31489;51.404;5.474;2022-08-02T14:30:17;33.80;35.50
45785;DHT22;31489;51.404;5.474;2022-08-02T14:32:47;33.80;36.00
45785;DHT22;31489;51.404;5.474;2022-08-02T14:35:13;33.90;35.70
45785;DHT22;31489;51.404;5.474;2022-08-02T14:37:39;33.90;35.80
45785;DHT22;31489;51.404;5.474;2022-08-02T14:40:05;34.00;35.70
45785;DHT22;31489;51.404;5.474;2022-08-02T14:42:31;34.10;35.80
45785;DHT22;31489;51.404;5.474;2022-08-02T14:44:57;34.10;35.70
45785;DHT22;31489;51.404;5.474;2022-08-02T14:47:23;34.10;35.70
45785;DHT22;31489;51.404;5.474;2022-08-02T14:49:48;34.20;35.70
45785;DHT22;31489;51.404;5.474;2022-08-02T14:52:14;34.20;35.60
45785;DHT22;31489;51.404;5.474;2022-08-02T14:54:40;34.30;35.60
45785;DHT22;31489;51.404;5.474;2022-08-02T14:57:07;34.30;35.40
45785;DHT22;31489;51.404;5.474;2022-08-02T14:59:33;34.30;35.20
45785;DHT22;31489;51.404;5.474;2022-08-02T15:01:59;34.20;35.60
45785;DHT22;31489;51.404;5.474;2022-08-02T15:04:26;34.20;35.80
45785;DHT22;31489;51.404;5.474;2022-08-02T15:06:53;34.20;35.60
45785;DHT22;31489;51.404;5.474;2022-08-02T15:09:19;34.20;36.20
45785;DHT22;31489;51.404;5.474;2022-08-02T15:11:45;34.30;35.90
45785;DHT22;31489;51.404;5.474;2022-08-02T15:14:11;34.30;36.10
45785;DHT22;31489;51.404;5.474;2022-08-02T15:16:37;34.40;36.00
45785;DHT22;31489;51.404;5.474;2022-08-02T15:19:03;34.40;35.80
45785;DHT22;31489;51.404;5.474;2022-08-02T15:21:31;34.40;35.70
45785;DHT22;31489;51.404;5.474;2022-08-02T15:23:57;34.40;35.90
45785;DHT22;31489;51.404;5.474;2022-08-02T15:26:23;34.40;35.80
45785;DHT22;31489;51.404;5.474;2022-08-02T15:28:49;34.20;36.00
45785;DHT22;31489;51.404;5.474;2022-08-02T15:31:15;34.20;36.00
45785;DHT22;31489;51.404;5.474;2022-08-02T15:33:42;34.20;36.10
45785;DHT22;31489;51.404;5.474;2022-08-02T15:36:09;34.10;35.90
45785;DHT22;31489;51.404;5.474;2022-08-02T15:38:35;34.10;36.10
45785;DHT22;31489;51.404;5.474;2022-08-02T15:41:02;34.10;36.30
45785;DHT22;31489;51.404;5.474;2022-08-02T15:43:29;34.00;36.20
45785;DHT22;31489;51.404;5.474;2022-08-02T15:45:55;34.00;36.20
45785;DHT22;31489;51.404;5.474;2022-08-02T15:48:21;34.00;36.50
45785;DHT22;31489;51.404;5.474;2022-08-02T15:50:47;33.90;36.60
45785;DHT22;31489;51.404;5.474;2022-08-02T15:53:12;33.90;36.80
45785;DHT22;31489;51.404;5.474;2022-08-02T15:55:38;33.90;36.70
45785;DHT22;31489;51.404;5.474;2022-08-02T15:58:04;33.90;36.90
45785;DHT22;31489;51.404;5.474;2022-08-02T16:00:31;33.90;36.70
45785;DHT22;31489;51.404;5.474;2022-08-02T16:02:57;33.80;36.50
45785;DHT22;31489;51.404;5.474;2022-08-02T16:05:22;33.80;36.70